Time;durP1;ratioP1;P1;durP2;ratioP2;P2;SDS_P1;SDS_P2;PMS_P1;PMS_P2;Temp;Humidity;BMP_temperature;BMP_pressure;BME280_temperature;BME280_humidity;BME280_pressure;Samples;Min_cycle;Max_cycle;Signal;HPM_P1;HPM_P2
2021/10/11 00:00:06;;;;;;;;;;;;;;;6.39;67.91;100991.62;1381907;89;20239;-93
2021/10/11 00:02:32;;;;;;;;;;;;;;;6.36;68.09;100990.98;1381966;89;20275;-92
2021/10/11 00:04:58;;;;;;;;;;;;;;;6.37;67.96;100992.68;1381754;89;20453;-93
2021/10/11 00:07:25;;;;;;;;;;;;;;;6.40;67.66;100996.41;1381954;89;20317;-92
2021/10/11 00:09:51;;;;;;;;;;;;;;;6.41;67.84;101001.55;1381960;89;20253;-94
2021/10/11 00:12:23;;;;;;;;;;;;;;;6.40;67.99;100984.58;1367952;91;20343;-91
2021/10/11 00:14:48;;;;;;;;;;;;;;;6.44;68.06;100986.03;1381475;89;20276;-91
2021/10/11 00:17:15;;;;;;;;;;;;;;;6.46;68.02;100976.26;1381415;89;20302;-92
2021/10/11 00:19:43;;;;;;;;;;;;;;;6.48;68.04;100983.57;1381655;89;20314;-92
2021/10/11 00:22:09;;;;;;;;;;;;;;;6.47;67.80;100978.80;1381543;89;20239;-92
2021/10/11 00:24:35;;;;;;;;;;;;;;;6.50;68.17;100980.34;1381411;89;20231;-92
2021/10/11 00:27:01;;;;;;;;;;;;;;;6.49;67.67;100982.13;1381413;89;20767;-92
2021/10/11 00:29:27;;;;;;;;;;;;;;;6.50;66.84;100985.15;1381884;89;20737;-94
2021/10/11 00:31:53;;;;;;;;;;;;;;;6.50;67.19;100972.45;1381758;89;20216;-93
2021/10/11 00:34:19;;;;;;;;;;;;;;;6.50;67.37;100972.00;1381631;89;20915;-92
2021/10/11 00:36:46;;;;;;;;;;;;;;;6.49;67.64;100971.61;1382193;89;20276;-91
2021/10/11 00:39:12;;;;;;;;;;;;;;;6.51;67.36;100981.56;1382818;89;20293;-92
2021/10/11 00:41:42;;;;;;;;;;;;;;;6.50;67.03;100975.95;1382094;89;20338;-92
2021/10/11 00:44:08;;;;;;;;;;;;;;;6.49;66.93;100978.19;1379627;89;20256;-91
2021/10/11 00:46:35;;;;;;;;;;;;;;;6.45;67.23;100976.73;1395510;89;20749;-91
2021/10/11 00:49:01;;;;;;;;;;;;;;;6.47;66.93;100978.80;1393551;88;20261;-91
2021/10/11 00:51:27;;;;;;;;;;;;;;;6.48;67.17;100987.52;1381684;89;20335;-91
2021/10/11 00:53:53;;;;;;;;;;;;;;;6.50;67.26;100979.89;1381675;89;20328;-93
2021/10/11 00:56:19;;;;;;;;;;;;;;;6.51;66.88;100979.41;1381441;89;20254;-91
2021/10/11 00:58:45;;;;;;;;;;;;;;;6.47;67.10;100967.41;1385899;89;20757;-90
2021/10/11 01:01:11;;;;;;;;;;;;;;;6.47;67.16;100972.66;1400727;88;20252;-90
2021/10/11 01:03:37;;;;;;;;;;;;;;;6.45;67.43;100978.53;1400636;88;20355;-92
2021/10/11 01:06:04;;;;;;;;;;;;;;;6.47;67.74;100979.23;1400579;88;20266;-91
2021/10/11 01:08:31;;;;;;;;;;;;;;;6.48;67.51;100982.25;1402497;87;20237;-91
2021/10/11 01:10:57;;;;;;;;;;;;;;;6.50;67.74;100979.89;1369858;88;20238;-91
2021/10/11 01:13:23;;;;;;;;;;;;;;;6.47;67.50;100977.92;1383938;89;20268;-92
2021/10/11 01:15:49;;;;;;;;;;;;;;;6.49;67.16;100985.24;1383265;89;20247;-91
2021/10/11 01:18:15;;;;;;;;;;;;;;;6.49;67.73;100982.13;1384019;89;20373;-92
2021/10/11 01:20:41;;;;;;;;;;;;;;;6.50;67.44;100976.39;1384114;89;20245;-92
2021/10/11 01:23:08;;;;;;;;;;;;;;;6.51;67.85;100976.78;1383888;89;20254;-91
2021/10/11 01:25:34;;;;;;;;;;;;;;;6.45;67.97;100970.16;1383807;89;20291;-91
2021/10/11 01:28:00;;;;;;;;;;;;;;;6.47;68.29;100967.41;1383822;88;20737;-92
2021/10/11 01:30:28;;;;;;;;;;;;;;;6.46;67.82;100971.00;1383936;88;20239;-92
2021/10/11 01:32:54;;;;;;;;;;;;;;;6.45;67.91;100961.44;1384012;89;20723;-91
2021/10/11 01:36:06;;;;;;;;;;;;;;;6.40;67.70;100953.03;1383732;89;20253;-91
2021/10/11 01:38:32;;;;;;;;;;;;;;;6.47;67.56;100951.63;1383657;89;20239;-91
2021/10/11 01:40:59;;;;;;;;;;;;;;;6.50;67.59;100949.65;1383748;89;20238;-91
2021/10/11 01:43:27;;;;;;;;;;;;;;;6.53;67.11;100948.56;1383466;88;20238;-92
2021/10/11 01:45:59;;;;;;;;;;;;;;;6.53;67.29;100940.22;1383556;88;20231;-91
2021/10/11 01:48:25;;;;;;;;;;;;;;;6.51;67.23;100940.80;1365328;90;20329;-90
2021/10/11 01:50:51;;;;;;;;;;;;;;;6.55;67.14;100932.20;1383777;88;20231;-91
2021/10/11 01:53:17;;;;;;;;;;;;;;;6.54;66.99;100937.11;1394738;89;20283;-90
2021/10/11 01:55:43;;;;;;;;;;;;;;;6.52;67.11;100931.11;1383633;89;20284;-91
2021/10/11 01:58:09;;;;;;;;;;;;;;;6.54;66.97;100931.38;1383766;88;20813;-91
2021/10/11 02:00:35;;;;;;;;;;;;;;;6.55;67.31;100930.89;1383783;89;20745;-91
2021/10/11 02:03:07;;;;;;;;;;;;;;;6.53;67.25;100928.84;1383638;88;20335;-90
2021/10/11 02:05:29;;;;;;;;;;;;;;;6.44;67.30;100920.30;1382392;89;20231;-91
2021/10/11 02:07:55;;;;;;;;;;;;;;;6.44;67.65;100918.98;1383046;88;20249;-90
2021/10/11 02:10:25;;;;;;;;;;;;;;;6.35;67.41;100920.47;1381720;89;20784;-90
2021/10/11 02:12:51;;;;;;;;;;;;;;;6.36;67.64;100912.11;1381602;90;20241;-91
2021/10/11 02:15:17;;;;;;;;;;;;;;;6.30;67.82;100914.24;1381485;89;20264;-91
2021/10/11 02:17:43;;;;;;;;;;;;;;;6.29;68.12;100911.23;1381885;90;20255;-93
2021/10/11 02:20:10;;;;;;;;;;;;;;;6.28;68.22;100916.61;1382062;89;21204;-93
2021/10/11 02:22:42;;;;;;;;;;;;;;;6.21;68.38;100920.12;1381849;90;20256;-92
2021/10/11 02:25:08;;;;;;;;;;;;;;;6.22;68.10;100913.10;1381587;89;20883;-92
2021/10/11 02:27:34;;;;;;;;;;;;;;;6.21;68.31;100912.23;1381728;89;20829;-91
2021/10/11 02:30:01;;;;;;;;;;;;;;;6.18;68.33;100905.88;1381773;90;20248;-93
2021/10/11 02:32:27;;;;;;;;;;;;;;;6.17;68.40;100910.78;1382098;89;20241;-93
2021/10/11 02:34:53;;;;;;;;;;;;;;;6.14;68.77;100904.43;1382755;90;20248;-92
2021/10/11 02:38:09;;;;;;;;;;;;;;;6.13;69.01;100905.84;1381823;89;20823;-92
2021/10/11 02:40:37;;;;;;;;;;;;;;;6.11;69.06;100902.02;1381928;89;20234;-92
2021/10/11 02:43:03;;;;;;;;;;;;;;;6.10;68.82;100902.50;1398408;88;20770;-94
2021/10/11 02:45:29;;;;;;;;;;;;;;;6.07;69.23;100898.77;1383052;89;20711;-94
2021/10/11 02:47:55;;;;;;;;;;;;;;;6.07;69.24;100893.52;1383580;89;20755;-93
2021/10/11 02:50:27;;;;;;;;;;;;;;;6.07;69.54;100891.34;1383541;89;20256;-92
2021/10/11 02:52:53;;;;;;;;;;;;;;;6.10;69.09;100883.27;1383094;89;20248;-90
2021/10/11 02:55:20;;;;;;;;;;;;;;;6.10;69.08;100883.27;1381858;89;20814;-92
2021/10/11 02:57:46;;;;;;;;;;;;;;;6.17;69.16;100883.19;1381762;89;20769;-91
2021/10/11 03:00:12;;;;;;;;;;;;;;;6.22;68.92;100885.02;1381862;89;21195;-92
2021/10/11 03:02:39;;;;;;;;;;;;;;;6.30;68.54;100881.38;1382409;89;20234;-92
2021/10/11 03:05:06;;;;;;;;;;;;;;;6.40;68.69;100883.35;1381662;89;20702;-91
2021/10/11 03:07:48;;;;;;;;;;;;;;;6.44;68.03;100886.95;1381819;89;20301;-91
2021/10/11 03:10:14;;;;;;;;;;;;;;;6.51;67.96;100882.11;1384682;89;20308;-91
2021/10/11 03:12:42;;;;;;;;;;;;;;;6.61;67.80;100877.84;1387533;89;20248;-92
2021/10/11 03:15:09;;;;;;;;;;;;;;;6.65;67.62;100874.06;1387574;89;20346;-93
2021/10/11 03:17:36;;;;;;;;;;;;;;;6.69;67.26;100876.83;1387545;89;20302;-93
2021/10/11 03:20:03;;;;;;;;;;;;;;;6.72;67.17;100870.02;1387542;89;20241;-92
2021/10/11 03:22:29;;;;;;;;;;;;;;;6.71;67.03;100865.72;1386769;89;20240;-91
2021/10/11 03:24:55;;;;;;;;;;;;;;;6.72;67.01;100867.39;1386691;89;20724;-92
2021/10/11 03:27:21;;;;;;;;;;;;;;;6.70;67.07;100857.48;1387710;89;20240;-93
2021/10/11 03:29:47;;;;;;;;;;;;;;;6.71;67.40;100863.09;1388474;89;20829;-93
2021/10/11 03:32:13;;;;;;;;;;;;;;;6.69;67.18;100852.31;1396516;89;20866;-92
2021/10/11 03:34:39;;;;;;;;;;;;;;;6.65;67.12;100845.12;1399096;87;20249;-93
2021/10/11 03:37:05;;;;;;;;;;;;;;;6.66;67.25;100852.06;1393460;89;20807;-94
2021/10/11 03:40:07;;;;;;;;;;;;;;;6.60;67.53;100843.30;1406588;87;20270;-92
2021/10/11 03:42:34;;;;;;;;;;;;;;;6.55;67.47;100844.11;1401344;87;20814;-92
2021/10/11 03:45:00;;;;;;;;;;;;;;;6.55;67.99;100846.25;1387219;89;20302;-92
2021/10/11 03:47:27;;;;;;;;;;;;;;;6.48;68.23;100852.09;1392374;89;20888;-93
2021/10/11 03:49:53;;;;;;;;;;;;;;;6.50;68.26;100852.80;1399306;87;20355;-93
2021/10/11 03:52:20;;;;;;;;;;;;;;;6.46;67.96;100842.98;1383598;89;20308;-93
2021/10/11 03:54:46;;;;;;;;;;;;;;;6.45;67.84;100840.48;1396196;89;20334;-92
2021/10/11 03:57:12;;;;;;;;;;;;;;;6.43;68.14;100837.95;1408254;87;20829;-93
2021/10/11 03:59:38;;;;;;;;;;;;;;;6.46;67.86;100839.52;1405241;87;20266;-94
2021/10/11 04:02:04;;;;;;;;;;;;;;;6.45;68.42;100838.69;1389180;88;20288;-92
2021/10/11 04:04:32;;;;;;;;;;;;;;;6.43;67.92;100835.80;1388514;89;20265;-91
2021/10/11 04:07:03;;;;;;;;;;;;;;;6.41;68.63;100839.01;1383529;90;20263;-91
2021/10/11 04:09:28;;;;;;;;;;;;;;;6.40;68.37;100841.28;1413902;87;20231;-91
2021/10/11 04:11:55;;;;;;;;;;;;;;;6.39;68.42;100836.95;1418789;86;20236;-93
2021/10/11 04:14:24;;;;;;;;;;;;;;;6.38;68.37;100831.34;1416975;86;20295;-91
2021/10/11 04:16:49;;;;;;;;;;;;;;;6.38;68.09;100824.77;1395233;88;20251;-91
2021/10/11 04:19:15;;;;;;;;;;;;;;;6.38;68.56;100823.45;1377734;90;20359;-91
2021/10/11 04:21:42;;;;;;;;;;;;;;;6.37;67.82;100814.73;1388967;90;20362;-92
2021/10/11 04:24:09;;;;;;;;;;;;;;;6.38;68.53;100818.20;1377301;89;20253;-91
2021/10/11 04:26:36;;;;;;;;;;;;;;;6.39;68.35;100806.72;1371451;89;20265;-90
2021/10/11 04:29:02;;;;;;;;;;;;;;;6.30;68.48;100817.42;1360804;92;20311;-93
2021/10/11 04:31:28;;;;;;;;;;;;;;;6.35;68.58;100821.05;1391840;93;20306;-92
2021/10/11 04:33:55;;;;;;;;;;;;;;;6.29;68.68;100813.13;1394061;89;20343;-90
2021/10/11 04:36:24;;;;;;;;;;;;;;;6.36;68.06;100809.58;1398279;87;20262;-90
2021/10/11 04:38:49;;;;;;;;;;;;;;;6.40;68.01;100811.05;1403861;88;20341;-91
2021/10/11 04:44:21;;;;;;;;;;;;;;;6.44;67.89;100812.49;1393400;89;20260;-93
2021/10/11 04:46:47;;;;;;;;;;;;;;;6.42;68.13;100824.94;1392479;88;20269;-92
2021/10/11 04:49:22;;;;;;;;;;;;;;;6.38;68.28;100819.52;1392283;88;20224;-91
2021/10/11 04:51:48;;;;;;;;;;;;;;;6.32;68.25;100822.94;1392485;88;20846;-91
2021/10/11 04:54:14;;;;;;;;;;;;;;;6.32;67.89;100822.94;1380267;90;20253;-92
2021/10/11 04:56:41;;;;;;;;;;;;;;;6.30;68.30;100816.98;1394275;88;20298;-93
2021/10/11 04:59:08;;;;;;;;;;;;;;;6.31;68.97;100822.59;1401000;88;20329;-91
2021/10/11 05:01:33;;;;;;;;;;;;;;;6.26;68.83;100815.50;1404499;88;20333;-91
2021/10/11 05:04:00;;;;;;;;;;;;;;;6.27;68.04;100821.59;1393063;87;20277;-92
2021/10/11 05:06:26;;;;;;;;;;;;;;;6.28;68.56;100818.87;1392099;88;20745;-92
2021/10/11 05:08:52;;;;;;;;;;;;;;;6.22;69.30;100810.11;1391160;87;20819;-91
2021/10/11 05:11:18;;;;;;;;;;;;;;;6.25;69.93;100815.15;1384162;89;20231;-91
2021/10/11 05:13:45;;;;;;;;;;;;;;;6.20;69.39;100813.80;1383701;88;20335;-92
2021/10/11 05:16:13;;;;;;;;;;;;;;;6.25;68.43;100809.89;1384218;88;20775;-91
2021/10/11 05:18:39;;;;;;;;;;;;;;;6.26;69.19;100814.67;1383644;89;20233;-91
2021/10/11 05:21:06;;;;;;;;;;;;;;;6.29;69.04;100815.28;1377136;91;20750;-89
2021/10/11 05:23:32;;;;;;;;;;;;;;;6.24;69.08;100810.85;1370369;90;20249;-90
2021/10/11 05:25:58;;;;;;;;;;;;;;;6.24;69.02;100804.28;1395086;89;20237;-90
2021/10/11 05:28:24;;;;;;;;;;;;;;;6.33;68.54;100809.34;1399264;87;20236;-90
2021/10/11 05:30:50;;;;;;;;;;;;;;;6.42;70.02;100813.10;1396236;87;20239;-92
2021/10/11 05:33:19;;;;;;;;;;;;;;;6.49;68.39;100807.74;1380075;89;20305;-90
2021/10/11 05:35:45;;;;;;;;;;;;;;;6.62;68.52;100808.53;1379612;90;20350;-90
2021/10/11 05:38:16;;;;;;;;;;;;;;;6.73;67.88;100804.64;1379577;88;20247;-89
2021/10/11 05:40:44;;;;;;;;;;;;;;;6.82;67.30;100808.83;1379822;89;20753;-92
2021/10/11 05:46:37;;;;;;;;;;;;;;;6.96;67.48;100804.69;1380515;88;20225;-92
2021/10/11 05:49:03;;;;;;;;;;;;;;;7.07;66.67;100798.15;1381746;89;20798;-93
2021/10/11 05:51:31;;;;;;;;;;;;;;;7.11;66.63;100795.66;1382631;89;20232;-95
2021/10/11 05:53:58;;;;;;;;;;;;;;;7.19;66.32;100799.87;1382101;89;20240;-93
2021/10/11 05:56:23;;;;;;;;;;;;;;;7.24;66.35;100799.02;1381306;88;20232;-92
2021/10/11 05:58:49;;;;;;;;;;;;;;;7.30;66.83;100801.66;1381257;88;20276;-93
2021/10/11 06:01:15;;;;;;;;;;;;;;;7.38;66.09;100799.77;1381286;88;20277;-92
2021/10/11 06:03:41;;;;;;;;;;;;;;;7.45;65.60;100800.95;1381433;88;20231;-92
2021/10/11 06:06:09;;;;;;;;;;;;;;;7.49;65.55;100805.05;1374485;90;20709;-92
2021/10/11 06:08:50;;;;;;;;;;;;;;;7.52;65.13;100810.08;1381200;88;20715;-94
2021/10/11 06:11:17;;;;;;;;;;;;;;;7.58;65.04;100814.88;1394064;88;20218;-92
2021/10/11 06:13:44;;;;;;;;;;;;;;;7.67;64.90;100814.63;1393900;87;20715;-94
2021/10/11 06:16:11;;;;;;;;;;;;;;;7.76;65.01;100811.77;1394055;88;20284;-93
2021/10/11 06:18:37;;;;;;;;;;;;;;;7.82;64.76;100815.23;1393277;88;20343;-91
2021/10/11 06:21:10;;;;;;;;;;;;;;;7.87;64.68;100807.81;1392504;88;20709;-92
2021/10/11 06:23:36;;;;;;;;;;;;;;;7.91;64.33;100807.91;1393322;88;20232;-93
2021/10/11 06:26:03;;;;;;;;;;;;;;;7.97;64.43;100805.27;1394299;88;20246;-94
2021/10/11 06:28:29;;;;;;;;;;;;;;;8.04;63.99;100815.70;1394488;87;20760;-92
2021/10/11 06:30:56;;;;;;;;;;;;;;;8.07;64.08;100821.56;1394260;88;20760;-93
2021/10/11 06:33:22;;;;;;;;;;;;;;;8.13;64.25;100813.16;1394332;88;20246;-94
2021/10/11 06:35:49;;;;;;;;;;;;;;;8.21;63.83;100819.64;1394184;88;20247;-94
2021/10/11 06:38:17;;;;;;;;;;;;;;;8.27;62.73;100820.45;1394075;88;20217;-93
2021/10/11 06:40:48;;;;;;;;;;;;;;;8.34;62.88;100812.39;1394574;87;20782;-94
2021/10/11 06:46:52;;;;;;;;;;;;;;;8.55;63.14;100806.75;1392900;103;20276;-90
2021/10/11 06:49:21;;;;;;;;;;;;;;;8.67;61.65;100810.18;1393571;88;20731;-90
2021/10/11 06:51:47;;;;;;;;;;;;;;;8.75;61.90;100810.88;1393065;87;20715;-91
2021/10/11 06:54:13;;;;;;;;;;;;;;;8.86;61.50;100814.80;1393460;88;20715;-93
2021/10/11 06:56:40;;;;;;;;;;;;;;;8.99;61.48;100817.23;1393106;88;20791;-90
2021/10/11 06:59:06;;;;;;;;;;;;;;;9.10;61.07;100805.78;1392887;88;20700;-91
2021/10/11 07:01:32;;;;;;;;;;;;;;;9.24;61.27;100801.50;1392765;87;20231;-92
2021/10/11 07:03:58;;;;;;;;;;;;;;;9.37;60.22;100803.44;1392634;87;20731;-91
2021/10/11 07:06:42;;;;;;;;;;;;;;;9.49;59.59;100802.87;1394497;88;20827;-93
2021/10/11 07:09:13;;;;;;;;;;;;;;;9.62;59.99;100799.54;1394467;87;20232;-91
2021/10/11 07:11:52;;;;;;;;;;;;;;;9.73;58.31;100794.66;1403925;86;20208;-92
2021/10/11 07:14:19;;;;;;;;;;;;;;;9.78;57.52;100800.39;1403257;89;20282;-91
2021/10/11 07:16:57;;;;;;;;;;;;;;;9.96;58.58;100798.42;1403368;88;20819;-91
2021/10/11 07:19:24;;;;;;;;;;;;;;;10.08;57.31;100802.13;1403470;88;20252;-92
2021/10/11 07:22:14;;;;;;;;;;;;;;;10.26;57.42;100806.28;1403742;88;20753;-91
2021/10/11 07:24:42;;;;;;;;;;;;;;;10.41;56.24;100803.27;1401980;88;20245;-91
2021/10/11 07:27:08;;;;;;;;;;;;;;;10.59;55.95;100802.95;1402925;88;20253;-89
2021/10/11 07:29:46;;;;;;;;;;;;;;;10.71;54.94;100800.52;1402634;89;20246;-87
2021/10/11 07:32:36;;;;;;;;;;;;;;;10.86;54.12;100794.80;1383033;89;20752;-89
2021/10/11 07:35:04;;;;;;;;;;;;;;;10.98;53.30;100800.29;1402889;88;20306;-88
2021/10/11 07:37:30;;;;;;;;;;;;;;;11.06;53.02;100788.50;1402831;89;20744;-89
2021/10/11 07:39:56;;;;;;;;;;;;;;;11.14;51.50;100785.98;1402764;88;20306;-90
2021/10/11 07:42:22;;;;;;;;;;;;;;;11.22;51.19;100786.58;1402560;89;20245;-91
2021/10/11 07:44:48;;;;;;;;;;;;;;;11.30;51.22;100786.20;1402927;88;20238;-91
2021/10/11 07:47:26;;;;;;;;;;;;;;;11.47;51.67;100787.27;1402747;88;20844;-89
2021/10/11 07:49:51;;;;;;;;;;;;;;;11.53;50.88;100785.86;1402712;88;20246;-90
2021/10/11 07:52:17;;;;;;;;;;;;;;;11.67;51.09;100780.09;1402729;89;20331;-90
2021/10/11 07:54:43;;;;;;;;;;;;;;;11.81;49.89;100777.95;1402962;89;20238;-91
2021/10/11 07:57:09;;;;;;;;;;;;;;;11.98;49.89;100779.01;1406147;87;20299;-91
2021/10/11 07:59:35;;;;;;;;;;;;;;;12.11;50.28;100782.98;1406315;88;20342;-92
2021/10/11 08:02:01;;;;;;;;;;;;;;;12.25;49.62;100782.95;1406128;88;20320;-92
2021/10/11 08:04:29;;;;;;;;;;;;;;;12.33;48.22;100775.57;1406096;87;20744;-91
2021/10/11 08:06:55;;;;;;;;;;;;;;;12.49;48.74;100779.72;1406218;89;20951;-92
2021/10/11 08:09:23;;;;;;;;;;;;;;;12.51;47.17;100779.55;1396581;87;20293;-91
2021/10/11 08:11:49;;;;;;;;;;;;;;;12.59;48.47;100773.00;1362341;89;20346;-93
2021/10/11 08:14:15;;;;;;;;;;;;;;;12.65;48.03;100783.84;1360012;90;20242;-91
2021/10/11 08:16:41;;;;;;;;;;;;;;;12.72;46.84;100764.66;1360026;91;20256;-92
2021/10/11 08:55:10;;;;;;;;;;;;;;;13.17;41.87;100737.08;1417003;86;23461;31
2021/10/11 08:57:36;;;;;;;;;;;;;;;13.28;43.37;100736.34;1415998;85;20854;-92
2021/10/11 09:00:19;;;;;;;;;;;;;;;13.46;42.85;100743.41;1432777;85;20297;-93
2021/10/11 09:02:53;;;;;;;;;;;;;;;13.61;42.36;100736.99;1413932;87;20412;-89
2021/10/11 09:05:32;;;;;;;;;;;;;;;13.79;42.27;100736.42;1413950;87;20367;-89
2021/10/11 09:08:04;;;;;;;;;;;;;;;13.87;41.33;100739.61;1432323;87;20360;-89
2021/10/11 09:10:35;;;;;;;;;;;;;;;13.91;40.78;100739.61;1429740;85;20277;-94
2021/10/11 09:13:09;;;;;;;;;;;;;;;14.10;42.38;100735.85;1423001;85;20762;-93
2021/10/11 09:15:35;;;;;;;;;;;;;;;14.12;39.10;100735.17;1425462;88;20936;-93
2021/10/11 09:18:04;;;;;;;;;;;;;;;14.23;40.23;100728.20;1434387;85;20282;-92
2021/10/11 09:20:29;;;;;;;;;;;;;;;14.26;40.56;100719.89;1419578;86;20263;-93
2021/10/11 09:22:58;;;;;;;;;;;;;;;14.38;41.39;100726.55;1413869;88;20255;-92
2021/10/11 09:25:38;;;;;;;;;;;;;;;14.28;38.87;100721.89;1414268;87;20374;-89
2021/10/11 09:28:06;;;;;;;;;;;;;;;14.43;39.33;100724.73;1413929;88;20367;-91
2021/10/11 09:30:34;;;;;;;;;;;;;;;14.41;40.08;100724.92;1416875;87;20804;-91
2021/10/11 09:33:12;;;;;;;;;;;;;;;14.27;39.50;100726.90;1420193;85;20319;-90
2021/10/11 09:35:39;;;;;;;;;;;;;;;14.39;40.79;100722.08;1429157;87;20915;-90
2021/10/11 09:38:18;;;;;;;;;;;;;;;14.57;41.19;100723.28;1424404;85;20303;-89
2021/10/11 09:40:44;;;;;;;;;;;;;;;14.63;40.47;100723.94;1419460;85;20252;-92
2021/10/11 09:43:12;;;;;;;;;;;;;;;14.71;40.38;100718.62;1414130;87;20277;-94
2021/10/11 09:45:38;;;;;;;;;;;;;;;14.75;40.32;100716.45;1414387;87;20248;-93
2021/10/11 09:48:06;;;;;;;;;;;;;;;14.73;40.38;100711.30;1415771;87;20270;-94
2021/10/11 09:50:32;;;;;;;;;;;;;;;14.70;40.03;100716.11;1414157;87;20277;-94
2021/10/11 09:52:59;;;;;;;;;;;;;;;14.72;40.10;100712.28;1431331;88;20357;-92
2021/10/11 09:55:25;;;;;;;;;;;;;;;14.72;39.39;100708.28;1429104;85;20262;-96
2021/10/11 09:57:51;;;;;;;;;;;;;;;14.71;39.72;100697.30;1417199;87;20300;-93
2021/10/11 10:00:17;;;;;;;;;;;;;;;14.83;40.47;100699.95;1429365;85;20734;-94
2021/10/11 10:02:47;;;;;;;;;;;;;;;14.98;41.00;100695.26;1425178;87;20275;-90
2021/10/11 10:05:16;;;;;;;;;;;;;;;15.16;40.05;100691.88;1421609;85;20255;-93
2021/10/11 10:07:46;;;;;;;;;;;;;;;15.46;40.35;100687.62;1414060;87;20263;-91
2021/10/11 10:10:13;;;;;;;;;;;;;;;15.65;38.98;100690.38;1413997;88;20285;-89
2021/10/11 10:12:44;;;;;;;;;;;;;;;15.72;39.08;100687.36;1414066;87;20263;-89
2021/10/11 10:15:10;;;;;;;;;;;;;;;15.71;37.65;100685.70;1414069;87;20363;-89
2021/10/11 10:17:36;;;;;;;;;;;;;;;15.69;37.48;100680.22;1414073;88;20285;-90
2021/10/11 10:20:11;;;;;;;;;;;;;;;15.65;38.25;100679.71;1414027;87;20344;-90
2021/10/11 10:22:47;;;;;;;;;;;;;;;15.78;37.91;100669.31;1422410;88;20260;-91
2021/10/11 10:25:19;;;;;;;;;;;;;;;15.87;38.77;100670.60;1418927;85;20270;-90
2021/10/11 10:28:12;;;;;;;;;;;;;;;16.06;39.68;100663.47;1420858;88;20386;-89
2021/10/11 10:30:54;;;;;;;;;;;;;;;16.20;38.77;100664.04;1434082;85;20394;-90
2021/10/11 10:33:34;;;;;;;;;;;;;;;16.13;36.95;100660.41;1431799;85;20327;-90
2021/10/11 10:36:00;;;;;;;;;;;;;;;15.97;37.13;100661.88;1414482;87;20441;-89
2021/10/11 10:38:27;;;;;;;;;;;;;;;16.16;37.59;100664.05;1427481;86;20282;-89
2021/10/11 10:40:56;;;;;;;;;;;;;;;16.05;37.19;100659.63;1420286;87;20438;-88
2021/10/11 10:43:22;;;;;;;;;;;;;;;15.58;37.59;100656.05;1407723;86;20857;-91
2021/10/11 10:45:48;;;;;;;;;;;;;;;15.63;37.58;100662.20;1395598;89;20754;-91
2021/10/11 10:48:21;;;;;;;;;;;;;;;15.73;38.82;100656.99;1413960;87;20292;-92
2021/10/11 10:50:55;;;;;;;;;;;;;;;15.85;38.69;100660.09;1413909;87;20307;-91
2021/10/11 10:54:07;;;;;;;;;;;;;;;15.96;39.64;100646.84;1413657;87;20419;-89
2021/10/11 10:56:33;;;;;;;;;;;;;;;15.93;39.79;100643.20;1419318;88;20275;-92
2021/10/11 10:59:03;;;;;;;;;;;;;;;15.87;38.35;100636.73;1410166;85;20799;-90
2021/10/11 11:01:30;;;;;;;;;;;;;;;15.94;38.82;100646.19;1401420;88;21131;-89
2021/10/11 11:03:56;;;;;;;;;;;;;;;15.97;39.88;100647.20;1420182;86;20955;-89
2021/10/11 11:06:31;;;;;;;;;;;;;;;15.95;37.45;100638.52;1406133;88;20261;-91
2021/10/11 11:08:58;;;;;;;;;;;;;;;16.04;37.94;100634.78;1421566;86;20351;-90
2021/10/11 11:11:27;;;;;;;;;;;;;;;16.10;38.98;100634.58;1421185;86;20254;-89
2021/10/11 11:13:56;;;;;;;;;;;;;;;16.19;38.86;100625.48;1421636;86;20276;-94
2021/10/11 11:16:28;;;;;;;;;;;;;;;16.18;37.96;100619.32;1421350;86;20357;-91
2021/10/11 11:18:59;;;;;;;;;;;;;;;16.23;38.65;100616.13;1421498;86;21283;-89
2021/10/11 11:21:27;;;;;;;;;;;;;;;16.12;37.64;100620.04;1421261;86;20290;-89
2021/10/11 11:23:53;;;;;;;;;;;;;;;16.11;38.16;100613.53;1421569;86;20342;-89
2021/10/11 11:26:19;;;;;;;;;;;;;;;16.06;37.98;100606.08;1421373;86;20268;-89
2021/10/11 11:28:46;;;;;;;;;;;;;;;15.99;38.83;100606.45;1421276;86;20267;-89
2021/10/11 11:31:12;;;;;;;;;;;;;;;15.87;38.63;100599.87;1421218;86;20320;-89
2021/10/11 11:33:52;;;;;;;;;;;;;;;15.77;38.59;100594.27;1420985;86;20806;-89
2021/10/11 11:36:18;;;;;;;;;;;;;;;15.59;39.29;100595.02;1421352;86;20312;-89
2021/10/11 11:38:44;;;;;;;;;;;;;;;15.64;39.38;100587.83;1421321;86;20254;-89
2021/10/11 11:41:19;;;;;;;;;;;;;;;15.62;40.01;100590.66;1421194;86;20381;-89
2021/10/11 11:43:47;;;;;;;;;;;;;;;15.53;40.30;100587.20;1421088;86;21313;-89
2021/10/11 11:46:13;;;;;;;;;;;;;;;15.32;38.74;100593.16;1421333;86;20343;-89
2021/10/11 11:48:41;;;;;;;;;;;;;;;15.33;40.61;100596.66;1421199;88;20319;-89
2021/10/11 11:51:14;;;;;;;;;;;;;;;15.27;40.02;100592.03;1421296;86;20372;-89
2021/10/11 11:57:20;;;;;;;;;;;;;;;15.19;40.21;100595.58;1396043;88;20333;-89
2021/10/11 11:59:59;;;;;;;;;;;;;;;15.08;40.33;100591.45;1352015;90;20237;-89
2021/10/11 12:02:57;;;;;;;;;;;;;;;15.06;40.84;100588.12;1351476;91;20343;-88
2021/10/11 12:05:24;;;;;;;;;;;;;;;15.04;41.60;100587.96;1351657;91;20371;-88
2021/10/11 12:07:50;;;;;;;;;;;;;;;14.98;41.37;100592.66;1350303;91;20283;-88
2021/10/11 12:10:20;;;;;;;;;;;;;;;14.98;40.82;100587.33;1342324;91;20332;-89
2021/10/11 12:12:47;;;;;;;;;;;;;;;15.02;40.90;100589.99;1348132;93;20259;-88
2021/10/11 12:15:21;;;;;;;;;;;;;;;15.08;40.97;100590.63;1351660;91;20222;-89
2021/10/11 12:17:47;;;;;;;;;;;;;;;15.13;41.16;100582.92;1351750;91;20304;-89
2021/10/11 12:20:15;;;;;;;;;;;;;;;15.16;40.77;100588.41;1351649;91;20237;-89
2021/10/11 12:22:42;;;;;;;;;;;;;;;15.17;40.45;100582.92;1351579;91;20326;-89
2021/10/11 12:25:10;;;;;;;;;;;;;;;15.22;41.14;100584.57;1351609;91;20356;-88
2021/10/11 12:27:36;;;;;;;;;;;;;;;15.22;40.75;100581.90;1351635;91;20251;-87
2021/10/11 12:30:43;;;;;;;;;;;;;;;15.08;39.26;100577.30;1351691;91;20334;-87
2021/10/11 12:33:17;;;;;;;;;;;;;;;15.06;39.60;100576.64;1351472;91;20244;-87
2021/10/11 12:36:13;;;;;;;;;;;;;;;15.05;39.89;100573.66;1352439;91;20259;-88
2021/10/11 12:38:51;;;;;;;;;;;;;;;15.10;40.85;100568.13;1351878;91;20348;-88
2021/10/11 12:41:29;;;;;;;;;;;;;;;15.16;41.42;100562.58;1351832;91;20334;-88
2021/10/11 12:48:14;;;;;;;;;;;;;;;15.21;40.67;100563.40;1351803;91;20333;-88
2021/10/11 12:50:53;;;;;;;;;;;;;;;15.17;40.85;100562.92;1352258;91;20340;-88
2021/10/11 12:53:25;;;;;;;;;;;;;;;15.16;41.10;100561.24;1351595;91;20296;-88
2021/10/11 13:03:02;;;;;;;;;;;;;;;15.14;40.93;100560.61;1318288;93;20308;-87
2021/10/11 13:05:28;;;;;;;;;;;;;;;15.18;41.27;100557.08;1343943;92;20269;-88
2021/10/11 13:07:54;;;;;;;;;;;;;;;15.14;40.83;100553.95;1342787;92;20711;-89
2021/10/11 13:10:20;;;;;;;;;;;;;;;15.18;40.99;100555.75;1356682;92;20296;-89
2021/10/11 13:12:46;;;;;;;;;;;;;;;15.13;42.25;100558.92;1345245;90;20743;-88
2021/10/11 13:15:12;;;;;;;;;;;;;;;15.17;40.01;100554.92;1358596;91;20718;-89
2021/10/11 13:17:39;;;;;;;;;;;;;;;15.17;40.05;100553.59;1348799;90;20759;-89
2021/10/11 13:20:06;;;;;;;;;;;;;;;15.14;39.12;100549.13;1341019;92;20869;-89
2021/10/11 13:22:33;;;;;;;;;;;;;;;15.06;39.40;100543.31;1340467;93;20275;-88
2021/10/11 13:25:05;;;;;;;;;;;;;;;15.03;38.90;100538.34;1340846;92;20215;-89
2021/10/11 13:27:32;;;;;;;;;;;;;;;15.01;39.65;100543.00;1345231;91;20316;-88
2021/10/11 13:33:11;;;;;;;;;;;;;;;15.03;39.79;100534.34;1363092;93;20262;-88
2021/10/11 14:30:04;;;;;;;;;;;;;;;16.55;37.03;100509.45;1369386;90;20335;-89
2021/10/11 15:56:59;;;;;;;;;;;;;;;13.23;50.83;100502.05;1395316;88;20248;-88
2021/10/11 15:58:29;;;;;;;;;;;;;;;13.17;50.17;100511.19;1382889;88;20343;-88
2021/10/11 16:06:35;;;;;;;;;;;;;;;13.03;50.55;100508.18;1398628;89;20252;-89
2021/10/11 16:09:03;;;;;;;;;;;;;;;13.00;50.50;100512.95;1396747;88;20222;-89
2021/10/11 16:11:29;;;;;;;;;;;;;;;12.95;51.72;100509.48;1385994;88;20232;-90
2021/10/11 16:13:55;;;;;;;;;;;;;;;12.88;52.43;100515.91;1377319;89;20765;-89
2021/10/11 16:16:22;;;;;;;;;;;;;;;12.83;51.95;100514.72;1389848;89;20738;-88
2021/10/11 16:18:49;;;;;;;;;;;;;;;12.79;52.26;100514.72;1377595;89;20812;-89